Time;durP1;ratioP1;P1;durP2;ratioP2;P2;SDS_P1;SDS_P2;PMS_P1;PMS_P2;Temp;Humidity;BMP_temperature;BMP_pressure;BME280_temperature;BME280_humidity;BME280_pressure;Samples;Min_cycle;Max_cycle;Signal;HPM_P1;HPM_P2
2021/06/01 00:01:38;;;;;;;25.27;13.25;;;;;;;13.24;59.58;100625.34;4877160;28;99369;-81
2021/06/01 00:04:05;;;;;;;24.90;12.75;;;;;;;13.17;59.46;100624.72;4894447;28;98376;-81
2021/06/01 00:06:30;;;;;;;21.90;12.30;;;;;;;13.07;60.04;100621.59;4878351;28;96630;-81
2021/06/01 00:08:56;;;;;;;23.52;12.80;;;;;;;12.92;60.16;100619.56;4879651;28;97191;-81
2021/06/01 00:11:23;;;;;;;20.45;11.05;;;;;;;12.91;60.23;100616.06;4862788;28;100593;-81
2021/06/01 00:13:48;;;;;;;27.25;12.32;;;;;;;12.88;60.44;100618.81;4894884;28;97026;-81
2021/06/01 00:16:15;;;;;;;19.02;10.38;;;;;;;12.88;60.54;100617.94;4895637;28;97008;-82
2021/06/01 00:18:42;;;;;;;20.92;10.35;;;;;;;12.80;60.48;100620.00;4864388;28;97356;-81
2021/06/01 00:21:09;;;;;;;22.48;9.18;;;;;;;12.76;60.14;100619.28;4883481;28;101121;-82
2021/06/01 00:23:37;;;;;;;15.50;8.65;;;;;;;12.75;60.46;100611.44;4887189;28;96707;-82
2021/06/01 00:26:07;;;;;;;16.92;8.65;;;;;;;12.74;60.34;100620.25;4873671;28;96549;-82
2021/06/01 00:28:34;;;;;;;12.27;7.18;;;;;;;12.66;60.62;100615.28;4887533;28;96830;-83
2021/06/01 00:31:00;;;;;;;16.45;8.45;;;;;;;12.66;60.87;100616.16;4890101;28;99784;-83
2021/06/01 00:33:26;;;;;;;16.25;8.38;;;;;;;12.76;60.45;100608.75;4888622;28;100204;-83
2021/06/01 00:35:52;;;;;;;16.35;8.45;;;;;;;12.75;60.83;100622.00;4889589;28;96903;-87
2021/06/01 00:38:18;;;;;;;13.32;7.70;;;;;;;12.78;59.97;100613.97;4886070;28;97440;-81
2021/06/01 00:40:43;;;;;;;13.50;7.63;;;;;;;12.66;60.28;100621.41;4867696;28;100196;-81
2021/06/01 00:43:09;;;;;;;15.57;7.68;;;;;;;12.66;60.48;100625.84;4899863;28;101176;-81
2021/06/01 00:45:35;;;;;;;16.02;8.00;;;;;;;12.64;60.78;100619.75;4868038;28;97145;-81
2021/06/01 00:48:00;;;;;;;17.13;7.90;;;;;;;12.64;60.80;100625.03;4901750;28;97028;-81
2021/06/01 00:50:27;;;;;;;17.90;7.53;;;;;;;12.66;60.84;100628.47;4867170;28;102029;-81
2021/06/01 00:52:54;;;;;;;11.85;6.93;;;;;;;12.54;60.79;100627.16;4884353;28;101685;-81
2021/06/01 00:55:20;;;;;;;12.23;7.47;;;;;;;12.44;61.73;100626.63;4868832;28;96781;-80
2021/06/01 00:57:46;;;;;;;14.27;7.18;;;;;;;12.38;61.50;100618.94;4869116;28;97067;-81
2021/06/01 01:02:59;;;;;;;15.63;7.82;;;;;;;12.41;61.46;100624.09;4867090;28;101379;-81
2021/06/01 01:05:31;;;;;;;16.27;7.75;;;;;;;12.42;61.02;100619.69;4884294;28;96638;-79
2021/06/01 01:08:20;;;;;;;17.92;7.43;;;;;;;12.29;61.59;100619.28;4886211;28;97030;-80
2021/06/01 01:10:47;;;;;;;13.82;7.40;;;;;;;12.28;61.91;100620.22;4886746;28;100747;-80
2021/06/01 01:13:13;;;;;;;18.75;7.40;;;;;;;12.26;61.75;100611.50;4884429;28;101151;-80
2021/06/01 01:15:40;;;;;;;21.58;8.13;;;;;;;12.23;61.58;100617.72;4869059;28;97260;-80
2021/06/01 01:18:11;;;;;;;14.18;7.43;;;;;;;12.37;61.28;100611.13;4885811;28;97158;-80
2021/06/01 01:20:49;;;;;;;13.57;7.22;;;;;;;12.14;61.86;100619.84;4900814;28;96948;-80
2021/06/01 01:23:17;;;;;;;13.38;7.72;;;;;;;12.06;62.19;100614.00;4886099;28;97481;-80
2021/06/01 01:25:48;;;;;;;12.95;7.55;;;;;;;12.02;61.99;100618.50;4884783;28;96753;-81
2021/06/01 01:28:33;;;;;;;13.38;7.53;;;;;;;12.06;61.98;100622.72;4902147;28;96907;-79
2021/06/01 01:31:06;;;;;;;17.08;7.70;;;;;;;11.96;62.06;100618.72;4901866;28;100460;-79
2021/06/01 01:33:34;;;;;;;13.88;7.93;;;;;;;11.94;61.95;100617.91;4885127;28;100782;-80
2021/06/01 01:36:02;;;;;;;17.63;8.35;;;;;;;11.96;61.97;100618.72;4887273;28;97127;-80
2021/06/01 01:38:29;;;;;;;20.30;7.50;;;;;;;11.95;62.14;100612.59;4871694;28;97054;-79
2021/06/01 01:40:59;;;;;;;20.15;7.35;;;;;;;11.89;62.52;100610.16;4872172;28;100628;-79
2021/06/01 01:43:30;;;;;;;16.13;7.37;;;;;;;11.97;62.07;100605.50;4911499;28;96937;-79
2021/06/01 01:46:04;;;;;;;16.35;8.30;;;;;;;11.89;62.33;100607.53;4887125;28;97074;-80
2021/06/01 01:51:15;;;;;;;14.52;7.50;;;;;;;11.82;62.42;100603.38;4903370;28;97018;-80
2021/06/01 01:53:51;;;;;;;11.85;7.85;;;;;;;11.72;62.61;100594.97;4886117;28;100543;-79
2021/06/01 01:56:20;;;;;;;13.95;7.65;;;;;;;11.81;62.39;100593.78;4887352;28;96881;-79
2021/06/01 01:58:48;;;;;;;14.73;8.43;;;;;;;11.86;61.77;100588.38;4888621;28;97455;-80
2021/06/01 02:01:14;;;;;;;15.73;8.63;;;;;;;11.81;62.25;100591.16;4903996;28;97221;-79
2021/06/01 02:03:40;;;;;;;13.25;7.68;;;;;;;11.73;62.63;100588.78;4872290;28;99991;-80
2021/06/01 02:06:06;;;;;;;17.35;8.35;;;;;;;11.70;63.04;100586.25;4872453;28;96603;-80
2021/06/01 02:08:32;;;;;;;15.77;8.85;;;;;;;11.70;62.43;100588.03;4888360;28;96554;-80
2021/06/01 02:10:58;;;;;;;15.57;7.95;;;;;;;11.61;62.87;100590.97;4889224;28;101518;-80
2021/06/01 02:13:27;;;;;;;12.35;7.78;;;;;;;11.53;63.29;100599.13;4889508;28;100681;-80
2021/06/01 02:15:53;;;;;;;14.13;8.23;;;;;;;11.48;62.95;100593.16;4891701;28;96787;-80
2021/06/01 02:18:18;;;;;;;17.17;8.00;;;;;;;11.52;62.97;100598.25;4907813;28;96838;-80
2021/06/01 02:20:46;;;;;;;18.98;8.68;;;;;;;11.51;63.26;100595.66;4890374;28;98117;-81
2021/06/01 02:26:03;;;;;;;16.02;8.63;;;;;;;11.36;63.38;100590.94;4894019;28;97223;-80
2021/06/01 02:28:39;;;;;;;16.00;8.45;;;;;;;11.28;63.53;100593.81;4875617;28;96966;-79
2021/06/01 02:31:09;;;;;;;18.30;7.63;;;;;;;11.30;63.67;100592.84;4890841;28;97020;-80
2021/06/01 02:33:36;;;;;;;18.10;8.75;;;;;;;11.29;63.64;100593.75;4875660;28;100315;-80
2021/06/01 02:36:03;;;;;;;14.48;7.70;;;;;;;11.35;63.79;100587.44;4879763;28;97075;-80
2021/06/01 02:38:31;;;;;;;15.80;9.00;;;;;;;11.38;63.66;100594.38;4903676;28;97011;-78
2021/06/01 02:40:57;;;;;;;17.80;8.15;;;;;;;11.40;63.71;100590.75;4918674;28;97402;-81
2021/06/01 02:43:23;;;;;;;15.25;8.80;;;;;;;11.34;63.50;100590.97;4886749;28;99187;-80
2021/06/01 02:45:49;;;;;;;18.10;8.57;;;;;;;11.27;63.77;100592.94;4893720;28;96742;-80
2021/06/01 02:48:17;;;;;;;16.27;7.82;;;;;;;11.22;64.31;100592.22;4906175;28;96814;-80
2021/06/01 02:50:43;;;;;;;16.17;8.65;;;;;;;11.21;64.14;100597.56;4887998;28;100673;-80
2021/06/01 02:53:11;;;;;;;13.80;7.43;;;;;;;11.23;63.97;100595.75;4889214;28;97126;-80
2021/06/01 02:55:37;;;;;;;16.65;8.38;;;;;;;11.23;63.87;100587.84;4888226;28;96631;-80
2021/06/01 02:58:07;;;;;;;18.83;8.88;;;;;;;11.20;64.29;100593.19;4903991;28;96831;-80
2021/06/01 03:00:35;;;;;;;11.95;7.70;;;;;;;11.16;64.35;100587.16;4903897;28;97213;-79
2021/06/01 03:03:05;;;;;;;16.13;8.77;;;;;;;11.15;64.74;100584.63;4889040;28;100285;-80
2021/06/01 03:05:32;;;;;;;17.10;8.38;;;;;;;11.17;64.45;100583.66;4911199;28;96501;-80
2021/06/01 03:08:12;;;;;;;12.20;7.75;;;;;;;11.14;64.12;100578.50;4903432;28;96650;-80
2021/06/01 03:10:37;;;;;;;13.90;8.98;;;;;;;11.24;64.03;100582.53;4899351;28;97070;-80
2021/06/01 03:13:03;;;;;;;17.33;8.13;;;;;;;11.18;64.30;100588.00;4903036;28;99143;-80
2021/06/01 03:15:29;;;;;;;16.30;7.93;;;;;;;11.13;64.22;100578.53;4900717;28;96347;-80
2021/06/01 03:17:55;;;;;;;12.77;8.18;;;;;;;11.20;64.17;100577.41;4877863;28;96632;-80
2021/06/01 03:20:21;;;;;;;17.92;8.50;;;;;;;11.22;64.21;100573.84;4895224;28;100471;-80
2021/06/01 03:22:47;;;;;;;17.52;8.10;;;;;;;11.26;64.13;100569.38;4913319;28;96999;-80
2021/06/01 03:25:13;;;;;;;14.25;8.48;;;;;;;11.33;64.04;100579.59;4874713;28;97001;-81
2021/06/01 03:27:39;;;;;;;19.25;8.32;;;;;;;11.38;63.87;100579.47;4908924;28;96550;-80
2021/06/01 03:30:06;;;;;;;18.38;8.60;;;;;;;11.47;63.74;100576.53;4875604;28;101122;-80
2021/06/01 03:32:32;;;;;;;17.63;8.88;;;;;;;11.42;63.64;100575.81;4874581;28;101412;-80
2021/06/01 03:34:58;;;;;;;14.45;8.35;;;;;;;11.37;64.14;100576.88;4890795;28;96578;-80
2021/06/01 03:37:23;;;;;;;16.80;8.68;;;;;;;11.38;63.49;100570.72;4893638;28;96541;-80
2021/06/01 03:39:49;;;;;;;15.80;9.18;;;;;;;11.50;63.51;100576.41;4901770;28;100722;-79
2021/06/01 03:42:15;;;;;;;18.70;8.70;;;;;;;11.48;63.22;100577.38;4911991;28;96972;-80
2021/06/01 03:44:41;;;;;;;12.95;8.02;;;;;;;11.54;63.31;100575.38;4883105;28;96606;-79
2021/06/01 03:47:07;;;;;;;16.60;7.93;;;;;;;11.49;63.79;100577.34;4919372;28;96590;-80
2021/06/01 03:49:35;;;;;;;18.52;9.20;;;;;;;11.56;63.41;100577.97;4918173;28;96702;-79
2021/06/01 03:52:06;;;;;;;16.90;9.00;;;;;;;11.59;63.66;100579.66;4903999;28;96284;-79
2021/06/01 03:54:32;;;;;;;16.75;8.95;;;;;;;11.60;63.67;100573.47;4900046;28;96590;-80
2021/06/01 03:56:57;;;;;;;18.38;9.07;;;;;;;11.67;63.37;100575.84;4887604;28;96630;-79
2021/06/01 03:59:23;;;;;;;16.58;8.50;;;;;;;11.69;63.35;100571.41;4900443;28;100064;-80
2021/06/01 04:01:48;;;;;;;15.95;8.60;;;;;;;11.70;63.25;100567.84;4876171;28;101724;-80
2021/06/01 04:04:14;;;;;;;13.88;8.38;;;;;;;11.76;62.87;100572.03;4893227;28;96592;-79
2021/06/01 04:06:40;;;;;;;21.05;8.90;;;;;;;11.70;62.91;100567.84;4893430;28;97403;-79
2021/06/01 04:09:05;;;;;;;18.48;8.73;;;;;;;11.65;63.73;100569.78;4912821;28;98097;-78
2021/06/01 04:11:32;;;;;;;14.45;8.95;;;;;;;11.61;63.72;100562.06;4889354;28;99802;-80
2021/06/01 04:13:57;;;;;;;20.67;9.68;;;;;;;11.84;62.90;100569.13;4891752;28;96619;-79
2021/06/01 04:16:23;;;;;;;14.38;8.70;;;;;;;11.92;62.77;100562.72;4876808;28;96746;-79
2021/06/01 04:18:48;;;;;;;15.55;8.13;;;;;;;12.21;61.89;100577.44;4884771;28;99731;-79
2021/06/01 04:21:14;;;;;;;19.90;8.30;;;;;;;12.21;61.66;100559.00;4915503;28;96703;-78
2021/06/01 04:23:39;;;;;;;14.57;8.55;;;;;;;12.42;61.28;100559.13;4878699;28;96719;-78
2021/06/01 04:26:05;;;;;;;16.00;8.15;;;;;;;12.50;60.99;100561.47;4889192;28;96789;-81
2021/06/01 04:28:30;;;;;;;13.25;8.55;;;;;;;12.69;60.83;100560.72;4903738;28;97559;-81
2021/06/01 04:30:56;;;;;;;14.00;7.97;;;;;;;12.82;60.18;100550.53;4870681;28;101526;-81
2021/06/01 04:33:21;;;;;;;23.83;9.00;;;;;;;12.84;59.33;100559.25;4886080;28;96706;-82
2021/06/01 04:35:47;;;;;;;16.88;8.30;;;;;;;12.86;59.59;100559.22;4886077;28;97081;-81
2021/06/01 04:38:12;;;;;;;11.57;8.43;;;;;;;12.91;59.15;100557.22;4901406;28;96948;-81
2021/06/01 04:40:38;;;;;;;14.68;8.52;;;;;;;12.92;59.09;100564.22;4885269;28;98091;-81
2021/06/01 04:43:04;;;;;;;27.67;8.88;;;;;;;13.09;59.07;100559.13;4883672;28;96553;-81
2021/06/01 04:45:29;;;;;;;16.35;7.00;;;;;;;13.22;58.95;100571.81;4899205;28;96693;-81
2021/06/01 04:47:55;;;;;;;17.80;7.55;;;;;;;13.23;58.56;100568.25;4880913;28;101562;-82
2021/06/01 04:50:20;;;;;;;9.70;6.45;;;;;;;13.29;58.45;100568.91;4898189;28;97119;-81
2021/06/01 04:52:47;;;;;;;13.32;7.10;;;;;;;13.40;58.58;100571.06;4881141;28;96650;-81
2021/06/01 04:55:13;;;;;;;16.73;7.70;;;;;;;13.52;58.53;100564.44;4897617;28;96814;-81
2021/06/01 04:57:40;;;;;;;15.55;7.00;;;;;;;13.50;58.87;100564.50;4881182;28;101166;-81
2021/06/01 05:00:07;;;;;;;13.98;6.97;;;;;;;13.63;58.26;100564.84;4864464;28;101672;-82
2021/06/01 05:02:33;;;;;;;13.05;7.25;;;;;;;13.63;57.87;100563.97;4866204;28;96899;-81
2021/06/01 05:04:59;;;;;;;13.18;6.90;;;;;;;13.76;57.95;100566.03;4881489;28;97184;-81
2021/06/01 05:07:24;;;;;;;20.33;7.72;;;;;;;13.74;58.11;100564.38;4881056;28;98154;-82
2021/06/01 05:09:50;;;;;;;18.90;7.13;;;;;;;13.85;59.00;100561.28;4879184;28;101358;-82
2021/06/01 05:12:15;;;;;;;18.42;6.68;;;;;;;14.07;58.04;100569.09;4864466;28;97077;-81
2021/06/01 05:14:41;;;;;;;12.55;6.68;;;;;;;14.15;57.73;100564.34;4897128;28;97301;-79
2021/06/01 05:17:06;;;;;;;14.95;6.70;;;;;;;14.29;57.26;100566.38;4864651;28;102135;-81
2021/06/01 05:19:32;;;;;;;12.80;6.38;;;;;;;14.41;56.66;100561.38;4881004;28;99979;-81
2021/06/01 05:21:58;;;;;;;12.68;6.22;;;;;;;14.85;56.13;100565.53;4897706;28;97068;-82
2021/06/01 05:24:23;;;;;;;15.05;6.30;;;;;;;15.37;55.22;100566.47;4897169;28;97233;-82
2021/06/01 05:26:50;;;;;;;16.58;6.68;;;;;;;15.47;55.26;100564.22;4879677;28;100366;-82
2021/06/01 05:29:15;;;;;;;13.07;6.32;;;;;;;15.50;54.75;100555.25;4865343;28;100484;-82
2021/06/01 05:31:54;;;;;;;13.07;5.97;;;;;;;15.55;54.26;100563.84;4864985;28;97513;-82
2021/06/01 05:34:22;;;;;;;13.57;6.55;;;;;;;16.17;53.63;100561.50;4897070;28;96942;-81
2021/06/01 05:36:47;;;;;;;12.88;6.10;;;;;;;16.78;52.63;100571.44;4879592;28;98028;-81
2021/06/01 05:39:14;;;;;;;9.18;5.45;;;;;;;16.95;51.60;100562.56;4880087;28;101432;-82
2021/06/01 05:41:39;;;;;;;15.07;5.90;;;;;;;17.43;51.50;100568.63;4864779;28;97177;-81
2021/06/01 05:44:05;;;;;;;16.77;6.28;;;;;;;17.59;50.31;100574.72;4864122;28;97391;-82
2021/06/01 05:46:31;;;;;;;13.30;5.60;;;;;;;17.85;49.38;100580.31;4882380;28;101323;-81
2021/06/01 05:48:56;;;;;;;11.60;5.82;;;;;;;18.29;47.50;100564.31;4864423;28;100219;-80
2021/06/01 05:51:29;;;;;;;8.73;4.90;;;;;;;18.80;46.18;100578.91;4862924;28;97149;-80
2021/06/01 05:53:55;;;;;;;9.07;4.60;;;;;;;19.10;45.72;100576.06;4880648;28;96657;-80
2021/06/01 05:56:20;;;;;;;12.07;4.40;;;;;;;19.09;45.51;100572.56;4879287;28;100782;-81
2021/06/01 05:58:46;;;;;;;10.80;4.90;;;;;;;19.89;44.40;100578.72;4879347;28;98575;-80
2021/06/01 06:01:11;;;;;;;11.30;4.85;;;;;;;20.24;44.05;100578.06;4860261;28;96597;-82
2021/06/01 06:03:37;;;;;;;12.57;5.35;;;;;;;20.34;43.38;100584.47;4893013;28;96943;-82
2021/06/01 06:06:10;;;;;;;16.45;7.50;;;;;;;20.73;43.05;100579.09;4894589;28;98263;-83
2021/06/01 06:08:36;;;;;;;6.47;4.47;;;;;;;20.51;43.46;100583.28;4865269;28;101524;-82
2021/06/01 06:11:01;;;;;;;9.48;4.55;;;;;;;20.07;44.11;100573.06;4875125;28;97174;-81
2021/06/01 06:13:27;;;;;;;11.77;4.75;;;;;;;19.90;44.19;100575.09;4871068;28;97030;-82
2021/06/01 06:15:52;;;;;;;7.38;4.03;;;;;;;20.00;43.85;100575.31;4877159;28;98627;-81
2021/06/01 06:18:23;;;;;;;7.78;4.75;;;;;;;19.94;44.08;100573.06;4877545;28;99477;-81
2021/06/01 06:20:49;;;;;;;9.40;4.50;;;;;;;19.88;44.27;100579.69;4892798;28;97298;-81
2021/06/01 06:23:15;;;;;;;10.65;3.97;;;;;;;19.87;44.42;100578.00;4876214;28;96954;-81
2021/06/01 06:25:41;;;;;;;9.88;3.97;;;;;;;19.90;44.20;100584.91;4875052;28;101184;-82
2021/06/01 06:28:06;;;;;;;7.03;3.53;;;;;;;20.55;42.98;100579.44;4873155;28;98228;-82
2021/06/01 06:30:32;;;;;;;10.40;4.00;;;;;;;24.36;37.52;100576.84;4859163;28;97419;-82
2021/06/01 06:32:58;;;;;;;7.95;4.00;;;;;;;25.96;35.35;100579.31;4874928;28;97080;-81
2021/06/01 06:35:23;;;;;;;10.15;4.47;;;;;;;26.80;33.53;100567.66;4875140;28;101084;-82
2021/06/01 06:37:49;;;;;;;6.45;3.65;;;;;;;27.14;32.26;100560.75;4859668;28;101580;-79
2021/06/01 06:40:16;;;;;;;6.22;3.90;;;;;;;27.75;31.98;100559.94;4874883;28;96805;-81
2021/06/01 06:42:42;;;;;;;7.68;3.75;;;;;;;28.09;30.63;100559.19;4875840;28;97189;-81
2021/06/01 06:45:08;;;;;;;10.05;4.28;;;;;;;28.26;30.51;100560.13;4874732;28;101822;-81
2021/06/01 06:47:44;;;;;;;8.77;3.67;;;;;;;28.39;30.38;100566.78;4874452;28;101721;-81
2021/06/01 06:50:12;;;;;;;8.20;3.65;;;;;;;29.03;29.34;100560.94;4867823;28;96663;-81
2021/06/01 06:52:38;;;;;;;10.38;3.97;;;;;;;29.61;29.37;100554.53;4860629;28;96963;-79
2021/06/01 06:55:05;;;;;;;5.13;3.08;;;;;;;30.11;28.76;100552.66;4888145;28;98603;-82
2021/06/01 06:57:31;;;;;;;6.10;3.28;;;;;;;30.09;27.80;100552.81;4872553;28;98154;-78
2021/06/01 06:59:56;;;;;;;6.60;3.42;;;;;;;30.58;28.02;100546.38;4856371;28;96974;-82
2021/06/01 07:02:24;;;;;;;6.18;3.17;;;;;;;30.74;26.99;100537.31;4857782;28;97521;-83
2021/06/01 07:04:50;;;;;;;11.07;3.55;;;;;;;30.71;27.07;100535.81;4872397;28;98780;-81
2021/06/01 07:07:15;;;;;;;11.15;7.22;;;;;;;31.20;27.23;100548.22;4856854;28;101365;-83
2021/06/01 07:09:41;;;;;;;6.65;3.10;;;;;;;31.85;26.47;100544.94;4873696;28;97259;-83
2021/06/01 07:12:07;;;;;;;6.97;3.50;;;;;;;32.39;26.13;100541.13;4858743;28;97434;-82
2021/06/01 07:15:05;;;;;;;10.20;3.08;;;;;;;32.17;25.27;100532.94;4860043;28;101483;-83
2021/06/01 07:17:31;;;;;;;7.68;3.03;;;;;;;32.50;25.41;100537.97;4867283;28;101904;-83
2021/06/01 07:19:57;;;;;;;5.30;3.00;;;;;;;32.61;24.89;100523.91;4877314;28;96746;-82
2021/06/01 07:22:23;;;;;;;6.53;3.17;;;;;;;32.86;25.53;100520.81;4867775;28;96990;-81
2021/06/01 07:24:49;;;;;;;9.18;3.40;;;;;;;32.59;24.80;100516.97;4840990;28;101748;-80
2021/06/01 07:27:14;;;;;;;5.78;2.50;;;;;;;32.61;24.82;100512.16;4856903;28;101177;-86
2021/06/01 07:29:40;;;;;;;4.63;2.33;;;;;;;32.28;24.45;100512.59;4859192;28;96867;-88
2021/06/01 07:32:06;;;;;;;5.00;3.38;;;;;;;31.02;25.81;100506.00;4857691;28;96936;-83
2021/06/01 07:34:31;;;;;;;4.25;2.55;;;;;;;31.76;26.25;100499.94;4877964;28;101492;-89
2021/06/01 07:36:57;;;;;;;6.90;2.65;;;;;;;32.21;26.08;100500.81;4876616;28;101485;-89
2021/06/01 07:39:23;;;;;;;3.70;2.40;;;;;;;31.11;25.69;100488.66;4860055;28;96859;-87
2021/06/01 07:41:48;;;;;;;4.95;2.50;;;;;;;30.75;26.03;100496.50;4848990;28;97426;-89
2021/06/01 07:44:14;;;;;;;6.72;2.42;;;;;;;31.61;26.29;100494.50;4842883;28;100407;-90
2021/06/01 07:46:40;;;;;;;10.05;2.53;;;;;;;31.75;24.61;100495.53;4858925;28;101203;-88
2021/06/01 07:49:06;;;;;;;4.70;1.80;;;;;;;31.43;24.70;100496.72;4858547;28;97030;-86
2021/06/01 07:51:31;;;;;;;3.47;1.63;;;;;;;30.38;25.77;100487.25;4860843;28;98211;-85
2021/06/01 07:54:03;;;;;;;5.05;1.80;;;;;;;31.49;25.10;100487.84;4887996;28;100876;-87
2021/06/01 07:56:29;;;;;;;3.35;2.40;;;;;;;32.35;24.34;100485.50;4877476;28;100723;-87
2021/06/01 07:58:55;;;;;;;3.92;1.90;;;;;;;31.76;24.47;100480.94;4878936;28;97363;-83
2021/06/01 08:01:20;;;;;;;3.92;1.85;;;;;;;30.83;25.02;100480.22;4874415;28;97939;-87
2021/06/01 08:03:46;;;;;;;3.42;1.73;;;;;;;30.70;25.60;100487.25;4872933;28;98467;-86
2021/06/01 08:06:12;;;;;;;5.03;1.75;;;;;;;30.22;26.06;100487.31;4864945;28;97917;-83
2021/06/01 08:08:38;;;;;;;6.82;2.17;;;;;;;29.92;26.87;100478.94;4862130;28;98496;-83
2021/06/01 08:11:04;;;;;;;4.68;1.92;;;;;;;29.53;27.31;100482.41;4866125;28;97348;-85
2021/06/01 08:13:30;;;;;;;5.80;1.95;;;;;;;29.51;27.59;100489.81;4873838;28;101075;-85
2021/06/01 08:15:57;;;;;;;7.47;2.30;;;;;;;29.28;26.88;100494.25;4858043;28;100152;-89
2021/06/01 08:18:25;;;;;;;4.63;2.10;;;;;;;29.19;27.36;100490.69;4870023;28;97378;-87
2021/06/01 08:21:06;;;;;;;6.80;2.10;;;;;;;29.22;27.78;100484.94;4875848;28;97261;-85
2021/06/01 08:23:32;;;;;;;5.90;2.05;;;;;;;29.69;27.42;100480.69;4864165;28;101217;-88
2021/06/01 08:25:58;;;;;;;6.07;1.98;;;;;;;31.21;26.05;100474.81;4854671;28;101002;-88
2021/06/01 08:28:23;;;;;;;6.88;2.03;;;;;;;32.43;25.23;100477.25;4872355;28;97271;-88
2021/06/01 08:30:49;;;;;;;2.58;1.90;;;;;;;32.92;23.92;100466.50;4857767;28;96971;-90
2021/06/01 08:33:15;;;;;;;3.40;1.92;;;;;;;32.50;24.06;100461.06;4856359;28;102114;-89
2021/06/01 08:35:40;;;;;;;5.45;1.83;;;;;;;30.80;24.74;100463.47;4864180;28;101503;-88
2021/06/01 08:38:07;;;;;;;5.13;1.85;;;;;;;30.38;24.76;100471.00;4867896;28;97243;-88
2021/06/01 08:40:32;;;;;;;2.95;2.08;;;;;;;30.18;25.33;100465.13;4861200;28;97233;-88
2021/06/01 08:42:58;;;;;;;4.32;1.65;;;;;;;30.28;25.89;100474.94;4871936;28;101487;-83
2021/06/01 08:45:24;;;;;;;4.45;1.77;;;;;;;30.13;26.48;100472.94;4865172;28;101161;-85
2021/06/01 08:47:50;;;;;;;3.00;1.92;;;;;;;29.81;26.53;100468.50;4879291;28;97526;-85
2021/06/01 08:50:16;;;;;;;6.45;1.80;;;;;;;29.99;25.82;100461.00;4877769;28;97614;-85
2021/06/01 08:52:42;;;;;;;3.65;2.28;;;;;;;29.96;26.86;100469.47;4878240;28;98035;-84
2021/06/01 08:55:10;;;;;;;7.13;2.40;;;;;;;30.73;26.14;100460.63;4873930;28;101640;-83
2021/06/01 08:57:37;;;;;;;8.55;2.55;;;;;;;31.34;25.60;100457.94;4859783;28;96833;-84
2021/06/01 09:00:07;;;;;;;4.68;2.30;;;;;;;32.34;25.15;100451.25;4866475;28;96981;-86
2021/06/01 09:02:32;;;;;;;3.20;1.95;;;;;;;32.72;24.45;100451.88;4883383;28;101627;-86
2021/06/01 09:05:06;;;;;;;3.75;1.85;;;;;;;32.66;24.73;100463.53;4860197;28;100958;-83
2021/06/01 09:07:44;;;;;;;4.55;2.13;;;;;;;32.31;23.82;100452.47;4867183;28;96850;-85
2021/06/01 09:21:45;;;;;;;2.25;1.50;;;;;;;30.31;26.29;100450.22;4883499;28;96898;-84
2021/06/01 09:24:11;;;;;;;4.78;2.08;;;;;;;30.65;26.06;100441.72;4881267;28;98523;-84
2021/06/01 09:26:37;;;;;;;3.00;1.80;;;;;;;30.87;25.12;100442.78;4880614;28;100310;-85
2021/06/01 09:29:02;;;;;;;5.15;2.15;;;;;;;31.08;25.29;100426.66;4878915;28;97292;-86
2021/06/01 09:31:28;;;;;;;5.15;1.90;;;;;;;30.80;25.96;100431.81;4867174;28;97444;-83
2021/06/01 09:33:53;;;;;;;4.07;1.98;;;;;;;30.40;26.08;100425.63;4877913;28;98644;-83
2021/06/01 09:36:22;;;;;;;4.65;2.58;;;;;;;29.97;26.70;100414.31;4863132;28;100393;-84
2021/06/01 09:38:48;;;;;;;6.22;2.13;;;;;;;29.88;25.74;100409.97;4878744;28;97120;-82
2021/06/01 09:41:16;;;;;;;3.45;2.03;;;;;;;30.04;26.89;100416.31;4893274;28;97125;-84
2021/06/01 09:44:00;;;;;;;5.13;2.17;;;;;;;29.72;27.04;100415.44;4869254;28;103220;-85
2021/06/01 09:46:35;;;;;;;2.85;1.48;;;;;;;29.40;26.47;100403.66;4875215;28;97915;-84
2021/06/01 09:49:12;;;;;;;4.25;1.70;;;;;;;29.10;27.34;100397.97;4876838;28;96797;-86
2021/06/01 09:51:48;;;;;;;8.30;1.90;;;;;;;28.63;27.75;100395.09;4893156;28;97466;-84
2021/06/01 09:54:30;;;;;;;1.92;1.65;;;;;;;28.47;27.72;100408.56;4892015;28;100056;-84
2021/06/01 09:56:57;;;;;;;5.65;1.90;;;;;;;28.01;28.02;100397.28;4873961;28;100793;-83
2021/06/01 09:59:22;;;;;;;3.00;1.98;;;;;;;27.98;28.14;100395.75;4867379;28;97029;-85
2021/06/01 10:01:48;;;;;;;3.10;1.92;;;;;;;27.93;27.84;100390.84;4902553;28;96940;-85
2021/06/01 10:04:24;;;;;;;4.60;2.00;;;;;;;27.42;28.99;100380.97;4852650;28;101579;-85
2021/06/01 10:06:50;;;;;;;3.35;1.85;;;;;;;27.33;29.41;100392.72;4892271;28;101785;-84
2021/06/01 10:09:16;;;;;;;5.70;2.30;;;;;;;27.40;29.78;100391.06;4882194;28;96747;-86
2021/06/01 10:12:02;;;;;;;3.38;2.30;;;;;;;27.19;29.68;100394.13;4860697;28;96889;-86
2021/06/01 10:14:27;;;;;;;3.25;1.80;;;;;;;27.10;30.38;100398.59;4856665;28;101971;-85
2021/06/01 10:16:53;;;;;;;3.53;1.80;;;;;;;27.09;29.58;100386.97;4876552;28;98256;-86
2021/06/01 10:19:19;;;;;;;8.60;2.67;;;;;;;26.89;29.44;100385.47;4876298;28;96641;-85
2021/06/01 10:21:45;;;;;;;6.68;2.20;;;;;;;26.93;30.26;100388.69;4862824;28;97977;-85
2021/06/01 10:24:14;;;;;;;5.07;2.05;;;;;;;26.88;29.81;100378.41;4863371;28;101102;-85
2021/06/01 10:26:41;;;;;;;7.75;2.17;;;;;;;26.72;29.67;100395.25;4850639;28;101223;-83
2021/06/01 10:29:07;;;;;;;9.20;2.20;;;;;;;27.04;30.73;100383.06;4877771;28;97229;-84
2021/06/01 10:31:33;;;;;;;3.15;1.65;;;;;;;27.13;29.65;100379.41;4864142;28;97169;-85
2021/06/01 10:34:00;;;;;;;2.47;1.80;;;;;;;26.84;29.08;100382.38;4877999;28;101760;-84
2021/06/01 10:50:08;;;;;;;9.77;2.13;;;;;;;27.02;29.89;100372.44;4863405;28;97191;-86
2021/06/01 10:52:33;;;;;;;2.00;1.55;;;;;;;26.81;30.18;100367.38;4863208;28;97108;-85
2021/06/01 10:55:02;;;;;;;3.38;1.85;;;;;;;26.94;29.99;100366.16;4859862;28;101901;-81
2021/06/01 10:57:54;;;;;;;3.55;1.65;;;;;;;26.74;29.49;100365.50;4860750;28;101326;-85
2021/06/01 11:03:15;;;;;;;3.78;1.55;;;;;;;26.75;30.44;100357.25;4876257;28;96550;-84
2021/06/01 11:05:59;;;;;;;3.55;1.80;;;;;;;26.81;30.86;100362.00;4861424;28;98745;-85
2021/06/01 11:08:44;;;;;;;5.00;2.15;;;;;;;26.75;31.20;100362.63;4874884;28;98065;-85
2021/06/01 11:11:22;;;;;;;5.32;1.98;;;;;;;26.73;30.68;100361.94;4876031;28;97052;-84
2021/06/01 11:13:48;;;;;;;3.97;1.98;;;;;;;26.80;31.07;100357.63;4875892;28;96902;-86
2021/06/01 11:16:13;;;;;;;10.73;2.20;;;;;;;26.73;30.66;100353.00;4875309;28;98478;-86
2021/06/01 11:18:52;;;;;;;4.35;1.80;;;;;;;26.78;30.86;100359.63;4861266;28;101540;-86
2021/06/01 11:24:17;;;;;;;3.55;1.70;;;;;;;26.63;29.43;100363.88;4875955;28;98063;-84
2021/06/01 11:35:28;;;;;;;4.10;1.80;;;;;;;26.64;31.66;100362.88;4862281;28;96859;-85
2021/06/01 11:43:14;;;;;;;2.00;1.80;;;;;;;26.15;30.26;100347.09;4893508;28;96736;-85
2021/06/01 11:46:15;;;;;;;5.18;1.85;;;;;;;26.13;29.82;100343.69;4879139;28;97184;-86
2021/06/01 11:51:21;;;;;;;3.83;1.90;;;;;;;26.36;30.56;100352.19;4878370;28;98628;-85
2021/06/01 11:54:06;;;;;;;2.55;1.55;;;;;;;26.39;30.40;100345.66;4894666;28;96744;-86
2021/06/01 11:56:37;;;;;;;3.50;1.75;;;;;;;26.27;29.40;100346.84;4862754;28;96954;-87
2021/06/01 12:20:43;;;;;;;4.50;1.80;;;;;;;25.78;31.27;100328.31;4877193;28;101353;-86
2021/06/01 12:23:38;;;;;;;6.65;2.05;;;;;;;25.80;31.92;100322.78;4866224;28;98040;-87
2021/06/01 12:26:18;;;;;;;16.17;4.78;;;;;;;26.02;31.19;100322.41;4879728;28;97169;-82
2021/06/01 12:31:53;;;;;;;7.75;5.20;;;;;;;25.86;32.20;100323.09;4881502;28;98701;-86
2021/06/01 12:34:28;;;;;;;11.43;5.75;;;;;;;25.83;32.29;100320.69;4877128;28;101477;-87
2021/06/01 12:45:04;;;;;;;7.00;2.85;;;;;;;25.54;33.17;100318.13;4904382;28;98326;-84
2021/06/01 13:05:17;;;;;;;5.60;2.40;;;;;;;25.64;33.25;100310.84;4888555;28;96875;-86
2021/06/01 13:12:04;;;;;;;2.95;1.85;;;;;;;24.89;32.60;100298.41;4905562;28;98252;-86
2021/06/01 13:19:16;;;;;;;4.60;2.50;;;;;;;24.71;33.09;100303.66;4903212;28;98526;-88